Indigo Spica — 3ESQ8 — position and weather

sailwx.info

Track history (hours):
 
Tides and Currents Weather Stations Pressure Air Temp Water Temp Dewpoint Dewpoint Depression Visibility Wind Speed Wind Dir Waves Ship Positions

Indigo Spica

Last reported at 2018-Jun-09 07:02 UTC. Time now 2018-Jun-24 12:50 UTC.
Position N 35°05' E 129°16'.
Warning: this ship's position is 15 days out of date.

Length 189 m; draft 5.9 m.

Type: Cargo ship. MMSI: 353093000.

Date/timePositionNaut miles runAvg speedWind from/ knotsBaromVisibWave heightAir tempDewpointWater temp
2018-Jun-09 07:02N 35°05' E 129°16'111.8
2018-Jun-09 06:59N 35°05' E 129°16'41112.1
2018-Jun-07 20:58N 30°58' E 122°43'611.8
2018-Jun-07 20:28N 30°58' E 122°37'510.5
2018-Jun-07 20:00N 30°59' E 122°31'510.8
2018-Jun-07 19:30N 31°01' E 122°25'510.6
2018-Jun-07 19:00N 31°02' E 122°19'510.2
2018-Jun-07 18:30N 31°03' E 122°13'4 7.8
2018-Jun-07 18:00N 31°03' E 122°09'611.3
2018-Jun-07 17:30N 31°04' E 122°02'612.1
2018-Jun-07 16:59N 31°07' E 121°56'613.2
2018-Jun-07 16:30N 31°11' E 121°50'1113.1
2018-Jun-07 15:38N 31°20' E 121°41'1210.5
2018-Jun-07 14:31N 31°26' E 121°29'1 6.0
2018-Jun-07 14:24N 31°26' E 121°29'411.1
2018-Jun-07 14:00N 31°30' E 121°25'612.0
2018-Jun-07 13:30N 31°33' E 121°20'712.2
2018-Jun-07 12:54N 31°39' E 121°14'511.6
2018-Jun-07 12:30N 31°41' E 121°10'913.0
2018-Jun-07 11:49N 31°46' E 121°01'  
2018-Jun-04 15:40N 31°55' E 120°53'7 7.3
2018-Jun-04 14:39N 31°48' E 120°56'3 8.9
2018-Jun-04 14:18N 31°47' E 120°59'410.2
2018-Jun-04 13:52N 31°46' E 121°04'411.4
2018-Jun-04 13:30N 31°43' E 121°08'611.5
2018-Jun-04 13:01N 31°40' E 121°13'611.7
2018-Jun-04 12:30N 31°35' E 121°18'612.3
2018-Jun-04 12:00N 31°31' E 121°23'612.0
2018-Jun-04 11:30N 31°27' E 121°28'4 7.2
2018-Jun-04 11:00N 31°25' E 121°32'12 8.9
2018-Jun-04 09:37N 31°19' E 121°44'1 9.1
2018-Jun-04 09:29N 31°18' E 121°46'7 9.2
2018-Jun-04 08:46N 31°16' E 121°53'3 9.6
2018-Jun-04 08:26N 31°15' E 121°56'4 9.5
2018-Jun-04 07:59N 31°15' E 122°01'510.1
2018-Jun-04 07:26N 31°13' E 122°07'712.4
2018-Jun-04 06:52N 31°09' E 122°14'410.9
2018-Jun-04 06:30N 31°06' E 122°18'  
2018-Jun-02 02:12N 31°05' E 122°57'0 0.2
2018-Jun-02 01:57N 31°05' E 122°57'0 0.3
2018-Jun-02 01:27N 31°05' E 122°57'0 0.2
2018-Jun-02 00:54N 31°05' E 122°57'0 0.1
2018-Jun-02 00:09N 31°05' E 122°57'0 0.2
2018-Jun-02 00:00N 31°05' E 122°57'0 0.1
2018-Jun-01 23:24N 31°05' E 122°57'0 0.1
2018-Jun-01 22:54N 31°05' E 122°57'0 0.1
2018-Jun-01 22:30N 31°05' E 122°57'0 0.0
2018-Jun-01 22:00N 31°05' E 122°57'0 0.1
2018-Jun-01 21:30N 31°05' E 122°57'0 0.0
2018-Jun-01 21:00N 31°05' E 122°57'0 0.1
2018-Jun-01 20:30N 31°05' E 122°57'0 0.0
2018-Jun-01 20:00N 31°05' E 122°57'0 0.1
2018-Jun-01 19:30N 31°05' E 122°57'0 0.1
2018-Jun-01 18:15N 31°05' E 122°57'0 0.0
2018-Jun-01 18:00N 31°05' E 122°57'0 0.1
2018-Jun-01 17:09N 31°05' E 122°57'0 0.0
2018-Jun-01 17:00N 31°05' E 122°57'0 0.1
2018-Jun-01 16:00N 31°05' E 122°57'0 0.0
2018-Jun-01 15:21N 31°05' E 122°57'0 0.1
2018-Jun-01 14:12N 31°05' E 122°57'0 0.1
2018-Jun-01 13:42N 31°05' E 122°57'0 0.2
2018-Jun-01 13:12N 31°05' E 122°57'0 0.2
2018-Jun-01 12:51N 31°05' E 122°57'0 0.0
2018-Jun-01 12:30N 31°05' E 122°57'0 0.1
2018-Jun-01 12:00N 31°05' E 122°57'0 0.0
2018-May-31 20:06N 31°05' E 122°57'0 0.5
2018-May-31 20:00N 31°05' E 122°57'0 0.0
2018-May-31 19:30N 31°05' E 122°57'0 0.0
2018-May-31 09:42N 31°05' E 122°57'197 9.0
2018-May-30 11:52N 32°41' E 126°20'  
Track history (hours):
 
Tides and Currents Weather Stations Pressure Air Temp Water Temp Dewpoint Dewpoint Depression Visibility Wind Speed Wind Dir Waves Ship Positions

Indigo Spica

Last reported at 2018-Jun-09 07:02 UTC. Time now 2018-Jun-24 12:50 UTC.
Position N 35°05' E 129°16'.
Warning: this ship's position is 15 days out of date.

Length 189 m; draft 5.9 m.

Type: Cargo ship. MMSI: 353093000.

Date/timePositionNaut miles runAvg speedWind from/ knotsBaromVisibWave heightAir tempDewpointWater temp
2018-Jun-09 07:02N 35°05' E 129°16'111.8
2018-Jun-09 06:59N 35°05' E 129°16'41112.1
2018-Jun-07 20:58N 30°58' E 122°43'611.8
2018-Jun-07 20:28N 30°58' E 122°37'510.5
2018-Jun-07 20:00N 30°59' E 122°31'510.8
2018-Jun-07 19:30N 31°01' E 122°25'510.6
2018-Jun-07 19:00N 31°02' E 122°19'510.2
2018-Jun-07 18:30N 31°03' E 122°13'4 7.8
2018-Jun-07 18:00N 31°03' E 122°09'611.3
2018-Jun-07 17:30N 31°04' E 122°02'612.1
2018-Jun-07 16:59N 31°07' E 121°56'613.2
2018-Jun-07 16:30N 31°11' E 121°50'1113.1
2018-Jun-07 15:38N 31°20' E 121°41'1210.5
2018-Jun-07 14:31N 31°26' E 121°29'1 6.0
2018-Jun-07 14:24N 31°26' E 121°29'411.1
2018-Jun-07 14:00N 31°30' E 121°25'612.0
2018-Jun-07 13:30N 31°33' E 121°20'712.2
2018-Jun-07 12:54N 31°39' E 121°14'511.6
2018-Jun-07 12:30N 31°41' E 121°10'913.0
2018-Jun-07 11:49N 31°46' E 121°01'  
2018-Jun-04 15:40N 31°55' E 120°53'7 7.3
2018-Jun-04 14:39N 31°48' E 120°56'3 8.9
2018-Jun-04 14:18N 31°47' E 120°59'410.2
2018-Jun-04 13:52N 31°46' E 121°04'411.4
2018-Jun-04 13:30N 31°43' E 121°08'611.5
2018-Jun-04 13:01N 31°40' E 121°13'611.7
2018-Jun-04 12:30N 31°35' E 121°18'612.3
2018-Jun-04 12:00N 31°31' E 121°23'612.0
2018-Jun-04 11:30N 31°27' E 121°28'4 7.2
2018-Jun-04 11:00N 31°25' E 121°32'12 8.9
2018-Jun-04 09:37N 31°19' E 121°44'1 9.1
2018-Jun-04 09:29N 31°18' E 121°46'7 9.2
2018-Jun-04 08:46N 31°16' E 121°53'3 9.6
2018-Jun-04 08:26N 31°15' E 121°56'4 9.5
2018-Jun-04 07:59N 31°15' E 122°01'510.1
2018-Jun-04 07:26N 31°13' E 122°07'712.4
2018-Jun-04 06:52N 31°09' E 122°14'410.9
2018-Jun-04 06:30N 31°06' E 122°18'  
2018-Jun-02 02:12N 31°05' E 122°57'0 0.2
2018-Jun-02 01:57N 31°05' E 122°57'0 0.3
2018-Jun-02 01:27N 31°05' E 122°57'0 0.2
2018-Jun-02 00:54N 31°05' E 122°57'0 0.1
2018-Jun-02 00:09N 31°05' E 122°57'0 0.2
2018-Jun-02 00:00N 31°05' E 122°57'0 0.1
2018-Jun-01 23:24N 31°05' E 122°57'0 0.1
2018-Jun-01 22:54N 31°05' E 122°57'0 0.1
2018-Jun-01 22:30N 31°05' E 122°57'0 0.0
2018-Jun-01 22:00N 31°05' E 122°57'0 0.1
2018-Jun-01 21:30N 31°05' E 122°57'0 0.0
2018-Jun-01 21:00N 31°05' E 122°57'0 0.1
2018-Jun-01 20:30N 31°05' E 122°57'0 0.0
2018-Jun-01 20:00N 31°05' E 122°57'0 0.1
2018-Jun-01 19:30N 31°05' E 122°57'0 0.1
2018-Jun-01 18:15N 31°05' E 122°57'0 0.0
2018-Jun-01 18:00N 31°05' E 122°57'0 0.1
2018-Jun-01 17:09N 31°05' E 122°57'0 0.0
2018-Jun-01 17:00N 31°05' E 122°57'0 0.1
2018-Jun-01 16:00N 31°05' E 122°57'0 0.0
2018-Jun-01 15:21N 31°05' E 122°57'0 0.1
2018-Jun-01 14:12N 31°05' E 122°57'0 0.1
2018-Jun-01 13:42N 31°05' E 122°57'0 0.2
2018-Jun-01 13:12N 31°05' E 122°57'0 0.2
2018-Jun-01 12:51N 31°05' E 122°57'0 0.0
2018-Jun-01 12:30N 31°05' E 122°57'0 0.1
2018-Jun-01 12:00N 31°05' E 122°57'0 0.0
2018-May-31 20:06N 31°05' E 122°57'0 0.5
2018-May-31 20:00N 31°05' E 122°57'0 0.0
2018-May-31 19:30N 31°05' E 122°57'0 0.0
2018-May-31 09:42N 31°05' E 122°57'197 9.0
2018-May-30 11:52N 32°41' E 126°20'  

Dump ship's entire track history